Time;durP1;ratioP1;P1;durP2;ratioP2;P2;SDS_P1;SDS_P2;PMS_P1;PMS_P2;Temp;Humidity;BMP_temperature;BMP_pressure;BME280_temperature;BME280_humidity;BME280_pressure;Samples;Min_cycle;Max_cycle;Signal;HPM_P1;HPM_P2
2023/01/19 00:02:22;;;;;;;12.95;8.45;;;10.60;75.00;;;;;;5017687;28;20136;-78
2023/01/19 00:04:48;;;;;;;15.20;7.93;;;10.60;75.00;;;;;;5017009;28;20508;-78
2023/01/19 00:07:14;;;;;;;14.52;8.20;;;10.60;75.00;;;;;;5017554;28;20408;-78
2023/01/19 00:09:40;;;;;;;17.15;8.63;;;10.60;74.90;;;;;;5016687;28;20539;-78
2023/01/19 00:12:06;;;;;;;13.27;8.15;;;10.60;74.80;;;;;;5017576;28;20140;-77
2023/01/19 00:14:32;;;;;;;14.60;8.10;;;10.60;74.70;;;;;;5018098;28;20101;-79
2023/01/19 00:16:58;;;;;;;13.32;8.02;;;10.60;75.20;;;;;;5016768;28;20575;-78
2023/01/19 00:19:24;;;;;;;13.25;8.18;;;10.60;74.30;;;;;;5032787;28;20535;-79
2023/01/19 00:21:50;;;;;;;15.02;8.50;;;10.60;74.30;;;;;;5015951;28;20034;-77
2023/01/19 00:24:17;;;;;;;14.25;8.00;;;10.60;74.20;;;;;;5017668;28;20044;-77
2023/01/19 00:26:43;;;;;;;13.05;7.93;;;10.60;74.30;;;;;;5017462;28;20116;-77
2023/01/19 00:29:10;;;;;;;14.82;8.05;;;10.60;74.50;;;;;;5006011;28;20065;-78
2023/01/19 00:31:36;;;;;;;14.23;7.63;;;10.60;74.60;;;;;;5016201;28;20034;-77
2023/01/19 00:34:04;;;;;;;13.43;7.78;;;10.70;74.70;;;;;;5017587;28;20052;-77
2023/01/19 00:36:30;;;;;;;12.43;7.68;;;10.60;74.50;;;;;;5015952;28;20041;-78
2023/01/19 00:38:56;;;;;;;12.70;7.50;;;10.60;74.40;;;;;;5017686;28;20500;-78
2023/01/19 00:42:38;;;;;;;14.57;7.80;;;10.60;75.00;;;;;;5017313;28;20041;-78
2023/01/19 00:44:08;;;;;;;15.40;7.65;;;10.60;74.30;;;;;;5016600;28;20034;-78
2023/01/19 00:46:34;;;;;;;11.98;7.43;;;10.60;74.20;;;;;;5017071;28;20030;-78
2023/01/19 00:49:01;;;;;;;15.30;8.07;;;10.60;74.10;;;;;;5017783;28;20033;-79
2023/01/19 00:51:26;;;;;;;14.50;8.02;;;10.60;74.30;;;;;;5017744;28;20034;-77
2023/01/19 00:53:52;;;;;;;13.13;7.68;;;10.60;74.30;;;;;;5016939;28;20038;-78
2023/01/19 00:56:18;;;;;;;13.48;7.50;;;10.60;74.50;;;;;;5018680;28;20053;-78
2023/01/19 00:58:44;;;;;;;14.43;7.60;;;10.60;74.60;;;;;;5017136;28;20080;-77
2023/01/19 01:01:11;;;;;;;14.43;7.13;;;10.60;74.60;;;;;;5016941;28;20038;-78
2023/01/19 01:03:36;;;;;;;12.00;6.82;;;10.60;74.70;;;;;;5017372;28;20029;-78
2023/01/19 01:06:05;;;;;;;12.93;7.45;;;10.70;74.90;;;;;;5017383;28;20030;-78
2023/01/19 01:08:32;;;;;;;15.10;7.63;;;10.70;75.00;;;;;;5022640;28;20464;-78
2023/01/19 01:10:58;;;;;;;11.10;7.15;;;10.70;74.90;;;;;;5016784;28;20033;-78
2023/01/19 01:13:24;;;;;;;12.38;6.90;;;10.70;75.00;;;;;;5017021;28;20052;-78
2023/01/19 01:15:51;;;;;;;12.23;6.88;;;10.70;74.90;;;;;;5016932;28;20096;-77
2023/01/19 01:18:17;;;;;;;11.60;7.00;;;10.70;74.80;;;;;;5017206;28;20033;-78
2023/01/19 01:20:43;;;;;;;11.50;6.72;;;10.70;74.80;;;;;;5016995;28;20168;-77
2023/01/19 01:23:09;;;;;;;11.20;6.88;;;10.70;74.90;;;;;;5016370;28;20224;-78
2023/01/19 01:25:36;;;;;;;11.68;6.88;;;10.70;75.00;;;;;;5019669;28;20515;-77
2023/01/19 01:28:07;;;;;;;11.55;7.07;;;10.70;74.90;;;;;;5018931;28;20104;-76
2023/01/19 01:30:38;;;;;;;13.10;7.30;;;10.70;74.80;;;;;;5017092;28;20260;-77
2023/01/19 01:33:04;;;;;;;13.88;7.57;;;10.70;74.80;;;;;;5019056;28;20041;-77
2023/01/19 01:35:32;;;;;;;10.80;6.25;;;10.70;74.70;;;;;;5021523;28;20104;-77
2023/01/19 01:37:59;;;;;;;14.23;7.30;;;10.70;74.70;;;;;;5022438;28;20033;-78
2023/01/19 01:40:26;;;;;;;13.32;6.72;;;10.70;74.70;;;;;;5019213;28;20053;-78
2023/01/19 01:42:52;;;;;;;10.95;6.63;;;10.70;74.90;;;;;;5020047;28;20068;-78
2023/01/19 01:45:33;;;;;;;11.75;6.63;;;10.70;74.90;;;;;;5020796;28;20493;-78
2023/01/19 01:48:24;;;;;;;13.65;6.63;;;10.70;74.80;;;;;;5019190;28;20042;-78
2023/01/19 01:53:42;;;;;;;11.60;6.95;;;10.80;74.90;;;;;;5019894;28;20029;-78
2023/01/19 01:56:12;;;;;;;11.70;6.85;;;10.80;75.00;;;;;;5024080;28;20095;-78
2023/01/19 01:58:39;;;;;;;10.90;6.57;;;10.70;75.20;;;;;;5024732;28;20026;-78
2023/01/19 02:03:52;;;;;;;10.32;6.40;;;10.80;74.80;;;;;;5019495;28;20034;-77
2023/01/19 02:06:18;;;;;;;12.65;6.43;;;10.80;74.80;;;;;;5019044;28;20036;-77
2023/01/19 02:14:21;;;;;;;10.65;5.75;;;10.80;74.80;;;;;;5019184;28;20411;-77
2023/01/19 02:16:48;;;;;;;13.23;7.07;;;10.80;74.90;;;;;;5018732;28;20040;-77
2023/01/19 02:19:21;;;;;;;12.73;6.57;;;10.80;74.80;;;;;;5041225;28;20038;-79
2023/01/19 02:21:55;;;;;;;14.35;6.88;;;10.80;74.90;;;;;;5020405;28;20033;-80
2023/01/19 02:24:21;;;;;;;10.65;6.25;;;10.80;74.90;;;;;;5019882;28;20043;-78
2023/01/19 02:26:49;;;;;;;9.85;6.32;;;10.80;74.80;;;;;;5024697;28;20040;-79
2023/01/19 02:29:20;;;;;;;12.48;6.80;;;10.80;74.80;;;;;;5022487;28;20037;-79
2023/01/19 02:31:47;;;;;;;10.68;6.28;;;10.80;74.90;;;;;;5019747;28;20603;-78
2023/01/19 02:34:18;;;;;;;10.93;6.72;;;10.80;74.80;;;;;;5019319;28;20128;-78
2023/01/19 02:36:47;;;;;;;11.75;7.38;;;10.80;74.70;;;;;;5019800;28;20050;-77
2023/01/19 02:39:18;;;;;;;12.52;6.18;;;10.90;74.70;;;;;;5019728;28;20408;-78
2023/01/19 02:41:50;;;;;;;11.40;6.78;;;10.90;74.80;;;;;;5017317;28;20034;-81
2023/01/19 02:44:17;;;;;;;11.32;6.28;;;10.90;74.70;;;;;;5024004;28;20088;-80
2023/01/19 02:46:43;;;;;;;13.07;6.78;;;10.90;74.60;;;;;;5021530;28;20030;-79
2023/01/19 02:49:09;;;;;;;11.05;6.68;;;10.90;74.40;;;;;;5019825;28;20036;-79
2023/01/19 02:51:35;;;;;;;13.48;6.90;;;10.90;74.30;;;;;;5008587;28;20064;-79
2023/01/19 02:54:03;;;;;;;12.13;6.50;;;10.80;74.20;;;;;;5020146;28;20125;-79
2023/01/19 02:56:56;;;;;;;12.75;6.50;;;10.80;74.30;;;;;;5024131;28;20041;-79
2023/01/19 02:59:37;;;;;;;11.82;6.90;;;10.80;74.50;;;;;;5018219;28;20029;-79
2023/01/19 03:02:22;;;;;;;13.38;6.70;;;10.90;74.80;;;;;;5019087;28;20034;-79
2023/01/19 03:05:16;;;;;;;10.35;5.80;;;10.90;74.70;;;;;;5022044;28;20086;-78
2023/01/19 03:07:54;;;;;;;10.65;5.80;;;10.90;74.70;;;;;;5017059;28;20053;-79
2023/01/19 03:10:59;;;;;;;13.40;6.70;;;10.90;74.60;;;;;;5017606;28;20033;-80
2023/01/19 03:13:46;;;;;;;9.52;6.38;;;10.90;74.60;;;;;;5017637;28;20292;-79
2023/01/19 03:16:29;;;;;;;11.77;6.70;;;10.90;74.30;;;;;;5019870;28;20088;-80
2023/01/19 03:19:03;;;;;;;11.70;6.18;;;10.90;74.30;;;;;;5019238;28;20048;-79
2023/01/19 03:21:32;;;;;;;10.60;6.17;;;10.90;74.30;;;;;;5019298;28;20069;-79
2023/01/19 03:24:03;;;;;;;11.38;6.47;;;10.90;74.20;;;;;;5017476;28;20055;-78
2023/01/19 03:26:34;;;;;;;9.52;6.22;;;10.90;74.20;;;;;;5017382;28;20061;-77
2023/01/19 03:29:02;;;;;;;10.95;6.50;;;10.90;74.20;;;;;;5018655;28;20052;-77
2023/01/19 03:31:31;;;;;;;11.70;5.93;;;10.90;74.20;;;;;;5018603;28;20041;-77
2023/01/19 03:34:02;;;;;;;8.98;5.70;;;10.90;74.30;;;;;;5016633;28;20117;-77
2023/01/19 03:36:44;;;;;;;9.38;5.90;;;10.90;74.30;;;;;;5017890;28;20060;-82
2023/01/19 03:39:13;;;;;;;8.60;5.80;;;10.90;75.00;;;;;;5017513;28;20539;-81
2023/01/19 03:41:41;;;;;;;9.00;5.65;;;10.90;74.40;;;;;;5019457;28;20030;-80
2023/01/19 03:44:10;;;;;;;9.48;5.85;;;11.00;74.50;;;;;;5017053;28;20057;-79
2023/01/19 03:46:37;;;;;;;11.02;6.28;;;11.00;74.60;;;;;;5016017;28;20034;-80
2023/01/19 03:49:04;;;;;;;11.35;6.80;;;11.00;74.50;;;;;;5016495;28;20367;-78
2023/01/19 03:51:30;;;;;;;9.35;5.55;;;11.00;74.50;;;;;;5015910;28;20026;-84
2023/01/19 03:53:56;;;;;;;8.98;5.70;;;11.00;74.50;;;;;;5016538;28;20103;-84
2023/01/19 03:56:24;;;;;;;8.32;5.50;;;11.00;74.50;;;;;;5023958;28;20029;-84
2023/01/19 03:58:51;;;;;;;9.60;6.75;;;11.00;74.60;;;;;;5021817;28;20034;-84
2023/01/19 04:01:21;;;;;;;13.20;6.70;;;11.00;74.50;;;;;;5018132;28;20120;-83
2023/01/19 04:03:48;;;;;;;10.45;6.85;;;11.00;74.50;;;;;;5016914;28;20587;-76
2023/01/19 04:06:14;;;;;;;9.63;5.88;;;11.00;74.40;;;;;;5019549;28;20026;-76
2023/01/19 04:08:40;;;;;;;10.82;6.03;;;11.00;74.30;;;;;;5018817;28;20041;-77
2023/01/19 04:11:07;;;;;;;9.27;6.05;;;11.00;74.30;;;;;;5024133;28;20042;-77
2023/01/19 04:13:33;;;;;;;9.35;5.82;;;11.00;74.90;;;;;;5021045;28;20040;-75
2023/01/19 04:16:00;;;;;;;10.73;5.60;;;11.00;74.50;;;;;;5019789;28;20124;-77
2023/01/19 04:18:30;;;;;;;9.75;6.03;;;11.00;74.60;;;;;;5019839;28;20036;-77
2023/01/19 04:21:05;;;;;;;11.55;5.93;;;11.00;74.60;;;;;;5017992;28;20106;-76
2023/01/19 04:23:32;;;;;;;9.38;5.38;;;11.00;74.60;;;;;;5017683;28;20378;-77
2023/01/19 04:25:59;;;;;;;8.75;5.57;;;11.00;74.70;;;;;;5019284;28;20061;-77
2023/01/19 04:28:26;;;;;;;8.95;5.90;;;11.00;74.60;;;;;;5017311;28;20048;-76
2023/01/19 04:30:52;;;;;;;9.50;5.63;;;11.00;74.60;;;;;;5018004;28;20053;-75
2023/01/19 04:33:18;;;;;;;8.93;5.32;;;11.00;74.60;;;;;;5018768;28;20123;-72
2023/01/19 04:35:45;;;;;;;9.18;5.45;;;11.00;74.50;;;;;;5016338;28;20045;-73
2023/01/19 04:38:11;;;;;;;8.30;4.95;;;11.00;77.70;;;;;;5016933;28;20408;-75
2023/01/19 04:40:37;;;;;;;7.90;4.90;;;11.10;76.50;;;;;;5017926;28;20030;-73
2023/01/19 04:43:03;;;;;;;9.48;5.07;;;11.10;76.30;;;;;;5016890;28;20041;-74
2023/01/19 04:45:29;;;;;;;8.55;5.50;;;11.10;76.00;;;;;;5018604;28;20044;-75
2023/01/19 04:47:55;;;;;;;9.27;5.05;;;11.10;76.10;;;;;;5002478;28;20041;-73
2023/01/19 04:50:21;;;;;;;11.55;5.65;;;11.10;76.30;;;;;;5017621;28;20052;-72
2023/01/19 04:52:47;;;;;;;8.82;4.95;;;11.10;76.30;;;;;;5015911;28;20038;-72
2023/01/19 04:55:14;;;;;;;11.55;5.90;;;11.10;76.30;;;;;;5018059;28;20049;-72
2023/01/19 04:57:40;;;;;;;9.15;5.60;;;11.20;76.30;;;;;;5016799;28;20504;-74
2023/01/19 05:00:07;;;;;;;8.00;5.70;;;11.20;76.40;;;;;;5014314;28;20034;-74
2023/01/19 05:02:33;;;;;;;9.38;5.75;;;11.20;76.50;;;;;;5017766;28;20045;-73
2023/01/19 05:04:59;;;;;;;9.48;5.72;;;11.10;76.50;;;;;;5017172;28;20045;-73
2023/01/19 05:07:25;;;;;;;11.15;6.28;;;11.20;76.40;;;;;;5020389;28;20026;-72
2023/01/19 05:09:52;;;;;;;8.98;5.78;;;11.20;76.40;;;;;;5019447;28;20475;-74
2023/01/19 05:12:19;;;;;;;9.23;5.57;;;11.20;76.40;;;;;;5021017;28;20029;-73
2023/01/19 05:14:45;;;;;;;12.55;5.90;;;11.20;76.30;;;;;;5017677;28;20045;-73
2023/01/19 05:17:11;;;;;;;9.25;5.90;;;11.20;76.40;;;;;;5019106;28;20029;-73
2023/01/19 05:19:37;;;;;;;9.30;5.63;;;11.20;76.30;;;;;;5021072;28;20037;-73
2023/01/19 05:22:04;;;;;;;9.63;6.68;;;11.20;78.50;;;;;;5020413;28;20044;-72
2023/01/19 05:24:30;;;;;;;11.32;6.25;;;11.20;76.20;;;;;;5022101;28;20041;-74
2023/01/19 05:26:57;;;;;;;12.52;5.93;;;11.20;76.20;;;;;;5020393;28;20539;-72
2023/01/19 05:29:23;;;;;;;11.38;6.47;;;11.20;76.00;;;;;;5020246;28;20073;-72
2023/01/19 05:31:49;;;;;;;8.77;5.65;;;11.20;76.20;;;;;;5019634;28;20034;-72
2023/01/19 05:34:15;;;;;;;9.82;5.93;;;11.20;76.30;;;;;;5018764;28;20037;-72
2023/01/19 05:36:42;;;;;;;13.25;6.10;;;11.20;76.40;;;;;;5020568;28;20453;-73
2023/01/19 05:39:08;;;;;;;11.82;5.60;;;11.20;76.30;;;;;;5019327;28;20095;-72
2023/01/19 05:41:34;;;;;;;10.93;5.70;;;11.20;76.10;;;;;;5019461;28;20407;-72
2023/01/19 05:44:00;;;;;;;10.02;5.85;;;11.20;76.10;;;;;;5020656;28;20038;-73
2023/01/19 05:46:26;;;;;;;8.82;5.88;;;11.20;75.90;;;;;;5018962;28;20503;-72
2023/01/19 05:48:51;;;;;;;7.75;5.40;;;11.20;75.80;;;;;;5019075;28;20104;-69
2023/01/19 05:51:21;;;;;;;11.75;6.07;;;;;;;;;;5021096;28;20112;-70
2023/01/19 05:53:46;;;;;;;13.77;6.93;;;11.40;99.90;;;;;;5008762;28;20446;-71
2023/01/19 05:56:15;;;;;;;9.00;6.05;;;;;;;;;;5020022;28;20098;-72
2023/01/19 05:58:43;;;;;;;11.65;6.40;;;;;;;;;;5018839;28;20045;-72
2023/01/19 06:01:11;;;;;;;10.10;6.03;;;;;;;;;;5019297;28;20034;-71
2023/01/19 06:03:40;;;;;;;12.10;6.20;;;;;;;;;;5024793;28;20044;-72
2023/01/19 06:06:09;;;;;;;11.00;6.65;;;;;;;;;;5018961;28;20037;-72
2023/01/19 06:08:36;;;;;;;11.40;6.65;;;;;;;;;;5019011;28;20034;-72
2023/01/19 06:11:06;;;;;;;12.75;6.32;;;;;;;;;;5019615;28;20033;-73
2023/01/19 06:13:34;;;;;;;10.18;6.10;;;;;;;;;;5019945;28;20121;-72
2023/01/19 06:16:02;;;;;;;9.73;6.38;;;;;;;;;;5019048;28;20029;-71
2023/01/19 06:18:31;;;;;;;13.18;5.80;;;;;;;;;;5018566;28;20033;-71
2023/01/19 06:21:00;;;;;;;13.32;6.60;;;;;;;;;;5019001;28;20044;-71
2023/01/19 06:23:37;;;;;;;9.15;6.10;;;;;;;;;;5018404;28;20025;-72
2023/01/19 06:26:12;;;;;;;9.68;6.22;;;;;;;;;;5019955;28;20131;-71
2023/01/19 06:28:43;;;;;;;10.10;6.40;;;;;;;;;;5018683;28;20042;-74
2023/01/19 06:31:15;;;;;;;10.32;6.55;;;;;;;;;;5020555;28;20039;-72
2023/01/19 06:33:46;;;;;;;12.02;6.30;;;;;;;;;;5019499;28;20030;-73
2023/01/19 06:36:18;;;;;;;11.18;7.05;;;;;;;;;;5018000;28;20037;-73
2023/01/19 06:38:45;;;;;;;11.93;6.68;;;12.50;99.90;;;;;;5019615;28;20676;-72
2023/01/19 06:41:11;;;;;;;11.23;7.28;;;12.50;73.20;;;;;;5018693;28;20450;-74
2023/01/19 06:43:36;;;;;;;14.00;7.90;;;12.50;71.70;;;;;;5019108;28;20116;-73
2023/01/19 06:46:03;;;;;;;13.75;8.95;;;12.30;69.00;;;;;;5017531;28;20064;-73
2023/01/19 06:48:29;;;;;;;12.85;8.30;;;12.10;67.80;;;;;;5017884;28;20026;-73
2023/01/19 06:50:55;;;;;;;16.40;8.52;;;11.90;67.40;;;;;;5019256;28;20484;-74
2023/01/19 06:53:21;;;;;;;14.98;9.23;;;11.70;67.30;;;;;;5018191;28;20479;-74
2023/01/19 06:55:47;;;;;;;14.32;9.45;;;11.60;67.40;;;;;;5018407;28;20619;-74
2023/01/19 06:58:13;;;;;;;15.25;9.30;;;11.40;67.60;;;;;;5024177;28;20037;-73
2023/01/19 07:00:39;;;;;;;18.05;9.05;;;11.30;67.90;;;;;;5019277;28;20057;-73
2023/01/19 07:03:15;;;;;;;16.02;8.85;;;11.20;68.10;;;;;;5018221;28;20045;-73
2023/01/19 07:05:41;;;;;;;16.42;8.90;;;11.00;68.30;;;;;;5018122;28;20037;-74
2023/01/19 07:08:06;;;;;;;18.80;9.80;;;10.90;68.70;;;;;;5016548;28;20037;-73
2023/01/19 07:10:32;;;;;;;18.08;9.77;;;10.90;70.10;;;;;;5016807;28;20457;-73
2023/01/19 07:12:58;;;;;;;18.60;10.38;;;10.70;70.70;;;;;;5015889;28;20037;-74
2023/01/19 07:15:24;;;;;;;17.80;10.10;;;10.60;69.90;;;;;;5016271;28;20099;-73
2023/01/19 07:17:50;;;;;;;17.25;10.05;;;10.50;69.60;;;;;;5017059;28;20037;-74
2023/01/19 07:20:18;;;;;;;20.58;10.32;;;10.30;69.60;;;;;;5015914;28;20713;-73
2023/01/19 07:22:45;;;;;;;18.15;10.95;;;10.20;69.60;;;;;;5015662;28;20092;-73
2023/01/19 07:25:12;;;;;;;20.40;11.00;;;10.20;69.90;;;;;;5017124;28;20510;-74
2023/01/19 07:27:39;;;;;;;19.13;10.32;;;10.10;70.30;;;;;;5018164;28;20049;-74
2023/01/19 07:30:06;;;;;;;16.92;10.25;;;10.00;70.50;;;;;;5004657;28;20065;-73
2023/01/19 07:32:32;;;;;;;17.13;10.25;;;10.00;70.70;;;;;;5017882;28;20511;-73
2023/01/19 07:34:58;;;;;;;17.10;10.23;;;9.90;70.60;;;;;;5018182;28;20101;-73
2023/01/19 07:37:24;;;;;;;19.08;10.43;;;9.90;94.80;;;;;;5019330;28;20034;-73
2023/01/19 07:39:50;;;;;;;17.58;9.55;;;9.80;95.70;;;;;;5021863;28;20091;-74
2023/01/19 07:42:16;;;;;;;20.15;11.43;;;9.80;98.80;;;;;;5018828;28;20032;-73
2023/01/19 07:44:41;;;;;;;21.30;11.55;;;9.70;99.90;;;;;;5018157;28;20065;-74
2023/01/19 07:47:11;;;;;;;21.25;11.57;;;;;;;;;;5017076;28;20042;-74
2023/01/19 07:49:38;;;;;;;22.08;11.52;;;9.50;99.90;;;;;;5018684;28;20037;-73
2023/01/19 07:52:04;;;;;;;23.30;11.27;;;9.40;71.60;;;;;;5017744;28;21778;-73
2023/01/19 07:54:30;;;;;;;24.35;12.05;;;9.40;71.80;;;;;;5016821;28;20116;-73
2023/01/19 07:56:56;;;;;;;22.35;11.38;;;9.30;72.00;;;;;;5021253;28;20179;-73
2023/01/19 07:59:22;;;;;;;19.02;10.98;;;9.20;72.30;;;;;;5017522;28;20120;-73
2023/01/19 08:01:48;;;;;;;21.27;11.00;;;9.20;72.60;;;;;;5017848;28;20511;-73
2023/01/19 08:04:14;;;;;;;21.02;11.75;;;9.20;72.80;;;;;;5017054;28;20041;-73
2023/01/19 08:06:44;;;;;;;21.30;11.50;;;9.20;72.90;;;;;;5018156;28;20033;-74
2023/01/19 08:09:10;;;;;;;24.55;11.75;;;9.20;73.00;;;;;;5020340;28;20029;-73
2023/01/19 08:11:36;;;;;;;24.25;12.15;;;9.10;72.90;;;;;;5021122;28;20458;-73
2023/01/19 08:14:03;;;;;;;21.08;11.75;;;9.10;73.00;;;;;;5017649;28;20041;-74
2023/01/19 08:16:29;;;;;;;23.90;12.85;;;9.10;73.20;;;;;;5015877;28;20037;-73
2023/01/19 08:18:55;;;;;;;21.40;11.80;;;9.00;73.20;;;;;;5016698;28;20435;-73
2023/01/19 08:21:20;;;;;;;21.95;11.18;;;9.00;73.20;;;;;;5017181;28;20041;-73
2023/01/19 08:23:54;;;;;;;24.17;12.68;;;9.00;73.30;;;;;;5015807;28;20045;-73
2023/01/19 08:26:28;;;;;;;26.38;12.05;;;8.90;73.40;;;;;;5017176;28;20041;-73
2023/01/19 08:28:56;;;;;;;26.30;12.23;;;8.90;73.50;;;;;;5017218;28;20037;-75
2023/01/19 08:31:23;;;;;;;22.85;12.30;;;8.90;73.60;;;;;;5017261;28;20033;-74
2023/01/19 08:33:49;;;;;;;20.85;12.18;;;8.80;73.80;;;;;;5017308;28;20082;-74
2023/01/19 08:36:15;;;;;;;24.42;13.15;;;8.80;74.10;;;;;;5016885;28;20041;-74
2023/01/19 08:38:43;;;;;;;26.05;12.57;;;8.80;74.10;;;;;;5016751;28;20072;-74
2023/01/19 08:41:10;;;;;;;23.73;12.35;;;8.80;74.20;;;;;;5024938;28;20128;-74
2023/01/19 08:43:37;;;;;;;25.00;13.07;;;8.70;74.40;;;;;;5020522;28;20033;-74
2023/01/19 08:46:03;;;;;;;19.40;11.30;;;8.70;74.50;;;;;;5020241;28;20048;-73
2023/01/19 08:48:29;;;;;;;27.80;12.95;;;8.70;74.60;;;;;;5021400;28;20034;-73
2023/01/19 08:50:55;;;;;;;22.40;12.50;;;8.70;74.50;;;;;;5020686;28;20532;-74
2023/01/19 08:53:24;;;;;;;23.83;12.73;;;8.70;74.50;;;;;;5019961;28;20038;-73
2023/01/19 08:55:56;;;;;;;25.23;12.02;;;8.70;74.50;;;;;;5021135;28;20068;-74
2023/01/19 08:58:22;;;;;;;25.48;12.85;;;8.70;74.50;;;;;;5020665;28;20030;-73
2023/01/19 09:00:51;;;;;;;24.58;12.98;;;8.70;74.50;;;;;;5030791;28;20460;-73
2023/01/19 09:03:18;;;;;;;24.17;12.00;;;8.70;95.60;;;;;;5033007;28;20508;-73
2023/01/19 09:05:44;;;;;;;23.25;12.75;;;8.80;99.90;;;;;;5019769;28;20041;-73
2023/01/19 09:08:12;;;;;;;25.10;14.48;;;8.80;99.90;;;;;;5023328;28;20038;-75
2023/01/19 09:10:43;;;;;;;24.95;12.65;;;8.70;99.80;;;;;;5021417;28;20079;-74
2023/01/19 09:13:10;;;;;;;27.30;13.30;;;8.70;99.30;;;;;;5020250;28;20037;-75
2023/01/19 09:15:37;;;;;;;24.50;12.90;;;8.70;99.20;;;;;;5020600;28;20512;-75
2023/01/19 09:18:06;;;;;;;24.45;13.55;;;8.60;99.00;;;;;;5019300;28;20037;-74
2023/01/19 09:20:34;;;;;;;27.50;13.43;;;8.60;98.90;;;;;;5019161;28;20049;-73
2023/01/19 09:23:00;;;;;;;25.02;12.88;;;8.60;98.90;;;;;;5019667;28;20127;-73
2023/01/19 09:25:27;;;;;;;26.63;13.60;;;8.60;98.70;;;;;;5018653;28;20038;-73
2023/01/19 09:27:54;;;;;;;24.20;13.00;;;8.60;98.40;;;;;;5019772;28;20068;-72
2023/01/19 09:30:20;;;;;;;22.67;13.38;;;8.60;98.30;;;;;;5020595;28;20030;-73
2023/01/19 09:32:47;;;;;;;23.67;13.35;;;8.60;98.10;;;;;;5019779;28;20474;-77
2023/01/19 09:35:13;;;;;;;24.17;13.07;;;8.50;97.70;;;;;;5020069;28;20620;-75
2023/01/19 09:37:39;;;;;;;26.20;13.75;;;8.50;98.00;;;;;;5019049;28;20029;-74
2023/01/19 09:40:06;;;;;;;22.90;12.73;;;8.50;97.90;;;;;;5018595;28;20033;-76
2023/01/19 09:42:44;;;;;;;22.27;13.95;;;8.50;98.00;;;;;;5020929;28;20033;-74
2023/01/19 09:45:25;;;;;;;26.58;13.35;;;8.40;98.00;;;;;;5018449;28;20037;-75
2023/01/19 09:47:52;;;;;;;29.48;14.30;;;8.40;97.90;;;;;;5019753;28;20605;-75
2023/01/19 09:50:35;;;;;;;21.98;13.00;;;8.40;98.40;;;;;;5018725;28;20038;-75
2023/01/19 09:53:26;;;;;;;27.73;13.48;;;8.40;98.50;;;;;;5018999;28;20030;-75
2023/01/19 09:55:53;;;;;;;27.38;13.30;;;8.40;98.60;;;;;;5019338;28;20046;-75
2023/01/19 09:58:19;;;;;;;25.70;13.63;;;8.40;98.70;;;;;;5019186;28;20399;-75
2023/01/19 10:00:53;;;;;;;26.33;12.90;;;8.40;98.70;;;;;;5020334;28;20091;-78
2023/01/19 10:03:20;;;;;;;26.05;13.18;;;8.40;98.70;;;;;;5019337;28;20033;-77
2023/01/19 10:06:12;;;;;;;23.40;13.80;;;8.40;98.70;;;;;;5019477;28;20034;-76
2023/01/19 10:08:48;;;;;;;25.35;13.45;;;8.30;98.60;;;;;;5016706;28;20037;-76
2023/01/19 10:12:12;;;;;;;30.48;14.40;;;8.30;76.20;;;;;;5017506;28;20040;-76
2023/01/19 10:15:03;;;;;;;28.92;14.50;;;8.30;76.10;;;;;;4983629;28;20174;-76
2023/01/19 10:17:45;;;;;;;30.48;14.10;;;8.30;75.80;;;;;;4968444;28;20542;-75
2023/01/19 10:20:21;;;;;;;26.35;14.43;;;8.30;75.80;;;;;;4967890;28;20035;-76
2023/01/19 10:22:49;;;;;;;28.13;14.25;;;8.30;75.90;;;;;;4983122;28;20413;-76
2023/01/19 10:25:22;;;;;;;27.55;14.90;;;8.30;75.90;;;;;;4984848;28;20626;-76
2023/01/19 10:27:48;;;;;;;29.67;15.02;;;8.30;75.80;;;;;;4969090;28;20054;-75
2023/01/19 10:30:27;;;;;;;28.98;15.32;;;8.20;75.80;;;;;;4985115;28;20042;-75
2023/01/19 10:32:53;;;;;;;31.45;15.52;;;8.20;75.80;;;;;;4985331;28;20034;-75
2023/01/19 10:35:23;;;;;;;25.17;14.32;;;8.20;76.00;;;;;;4985461;28;20426;-75
2023/01/19 10:37:52;;;;;;;29.85;14.40;;;8.20;76.00;;;;;;4984650;28;20560;-75
2023/01/19 10:40:53;;;;;;;28.95;15.07;;;8.20;76.00;;;;;;4984485;28;20093;-75
2023/01/19 10:43:43;;;;;;;31.50;15.32;;;8.20;75.90;;;;;;4938562;28;20418;-75
2023/01/19 10:46:31;;;;;;;23.58;13.55;;;8.10;75.80;;;;;;4939102;28;20054;-75
2023/01/19 10:48:57;;;;;;;26.20;14.75;;;8.10;75.80;;;;;;4978547;28;20176;-76
2023/01/19 10:51:23;;;;;;;27.48;15.05;;;8.10;75.80;;;;;;4968129;28;20037;-75
2023/01/19 10:53:58;;;;;;;27.65;14.75;;;8.10;75.90;;;;;;4994157;28;20034;-75
2023/01/19 10:56:29;;;;;;;29.83;15.82;;;8.10;76.00;;;;;;4978251;28;20512;-75
2023/01/19 10:58:57;;;;;;;29.90;15.98;;;8.10;76.10;;;;;;4983216;28;20038;-75
2023/01/19 11:01:26;;;;;;;31.77;15.88;;;8.10;76.00;;;;;;4982948;28;20061;-75
2023/01/19 11:03:55;;;;;;;30.95;15.55;;;8.10;76.00;;;;;;4992552;28;20042;-77
2023/01/19 11:06:29;;;;;;;32.15;16.45;;;8.10;76.00;;;;;;4993666;28;20045;-75
2023/01/19 11:09:16;;;;;;;27.77;14.57;;;8.10;75.90;;;;;;4993299;28;20081;-75
2023/01/19 11:11:48;;;;;;;31.55;15.10;;;8.10;75.90;;;;;;4993131;28;20271;-76
2023/01/19 11:14:18;;;;;;;28.85;14.98;;;8.10;76.00;;;;;;4975659;28;20034;-76
2023/01/19 11:16:47;;;;;;;32.22;15.68;;;8.00;76.00;;;;;;4965829;28;20043;-75
2023/01/19 11:19:39;;;;;;;32.53;15.68;;;8.00;76.00;;;;;;5010004;28;20582;-76
2023/01/19 11:22:25;;;;;;;26.77;15.40;;;8.00;76.00;;;;;;5016803;28;20688;-75
2023/01/19 11:24:52;;;;;;;30.63;14.82;;;8.00;75.90;;;;;;5019463;28;20046;-75
2023/01/19 11:27:21;;;;;;;34.35;15.85;;;8.00;76.00;;;;;;5040051;28;20115;-75
2023/01/19 11:30:04;;;;;;;33.60;16.35;;;8.00;76.00;;;;;;5016758;28;20408;-75
2023/01/19 11:32:32;;;;;;;34.08;15.98;;;8.00;76.00;;;;;;5019598;28;20061;-76
2023/01/19 11:34:59;;;;;;;33.60;15.82;;;8.00;76.00;;;;;;5017427;28;20034;-75
2023/01/19 11:37:28;;;;;;;32.72;15.48;;;8.00;76.00;;;;;;5023512;28;20724;-76
2023/01/19 11:39:59;;;;;;;30.20;15.38;;;8.00;76.00;;;;;;5018107;28;20117;-75
2023/01/19 11:42:27;;;;;;;35.83;16.48;;;8.00;75.80;;;;;;5019009;28;20091;-75
2023/01/19 11:45:13;;;;;;;32.20;17.25;;;8.00;75.70;;;;;;5020903;28;20037;-76
2023/01/19 11:47:44;;;;;;;34.28;16.88;;;8.00;75.70;;;;;;5018299;28;20029;-76
2023/01/19 11:50:35;;;;;;;27.10;14.88;;;8.00;75.60;;;;;;5016409;28;20650;-74
2023/01/19 11:53:13;;;;;;;29.75;13.40;;;8.10;76.10;;;;;;5017199;28;20030;-76
2023/01/19 11:55:56;;;;;;;24.25;12.05;;;8.10;76.60;;;;;;5020581;28;20038;-75
2023/01/19 11:58:22;;;;;;;19.65;11.30;;;8.30;76.90;;;;;;5016784;28;20343;-76
2023/01/19 12:00:54;;;;;;;21.35;11.27;;;8.40;77.10;;;;;;5015308;28;21009;-75
2023/01/19 12:03:31;;;;;;;21.52;10.50;;;8.50;77.30;;;;;;5023876;28;20037;-75
2023/01/19 12:06:03;;;;;;;18.90;10.20;;;8.60;77.40;;;;;;5017864;28;20042;-75
2023/01/19 12:08:43;;;;;;;17.80;10.60;;;8.70;77.30;;;;;;5017926;28;20061;-75
2023/01/19 12:11:16;;;;;;;19.70;10.13;;;8.80;77.30;;;;;;5016804;28;20064;-76
2023/01/19 12:13:42;;;;;;;22.38;10.27;;;8.90;77.20;;;;;;5005496;28;20036;-74
2023/01/19 12:16:16;;;;;;;16.88;9.57;;;8.90;77.00;;;;;;5016169;28;20408;-74
2023/01/19 12:19:09;;;;;;;20.40;10.30;;;9.00;77.10;;;;;;5012012;28;20030;-73
2023/01/19 12:21:36;;;;;;;19.40;9.98;;;9.10;76.90;;;;;;5025409;28;20224;-73
2023/01/19 12:24:11;;;;;;;18.33;9.75;;;9.10;76.90;;;;;;5017771;28;20034;-73
2023/01/19 12:26:43;;;;;;;21.38;10.32;;;9.20;76.70;;;;;;5010553;28;20040;-75
2023/01/19 12:29:16;;;;;;;21.02;9.43;;;9.20;76.70;;;;;;5012032;28;20054;-72
2023/01/19 12:31:42;;;;;;;17.85;9.30;;;9.40;76.80;;;;;;5015002;28;20126;-74
2023/01/19 12:34:31;;;;;;;16.27;8.80;;;9.40;76.90;;;;;;5010105;28;20128;-74
2023/01/19 12:37:03;;;;;;;18.73;9.32;;;9.50;77.20;;;;;;5017516;28;20588;-75
2023/01/19 12:39:30;;;;;;;15.30;8.90;;;9.50;77.20;;;;;;5005863;28;20515;-75
2023/01/19 12:42:10;;;;;;;18.17;8.85;;;9.60;77.10;;;;;;5024365;28;20562;-73
2023/01/19 12:44:36;;;;;;;17.55;9.18;;;9.60;77.00;;;;;;5015337;28;20323;-76
2023/01/19 12:47:14;;;;;;;16.95;8.98;;;9.70;76.90;;;;;;5017374;28;20091;-73
2023/01/19 12:49:45;;;;;;;16.65;9.40;;;9.80;76.90;;;;;;5026547;28;20029;-73
2023/01/19 12:52:11;;;;;;;17.95;8.98;;;9.80;76.80;;;;;;5010796;28;20436;-74
2023/01/19 12:54:41;;;;;;;17.05;9.43;;;9.80;76.60;;;;;;5011434;28;20036;-74
2023/01/19 12:57:21;;;;;;;16.73;9.48;;;9.90;76.60;;;;;;5009420;28;20553;-75
2023/01/19 12:59:55;;;;;;;16.10;8.77;;;9.90;76.40;;;;;;5021543;28;20084;-73
2023/01/19 13:02:24;;;;;;;24.33;11.10;;;9.90;76.30;;;;;;5014766;28;20099;-74
2023/01/19 13:05:10;;;;;;;32.20;15.18;;;10.10;79.40;;;;;;5007421;28;20029;-74
2023/01/19 13:08:01;;;;;;;31.30;15.60;;;10.10;73.40;;;;;;5029000;28;20040;-74
2023/01/19 13:10:55;;;;;;;29.90;16.00;;;10.00;71.50;;;;;;5015781;28;20037;-74
2023/01/19 13:13:36;;;;;;;31.40;15.07;;;9.90;70.20;;;;;;5014936;28;20088;-74